sensor_id;sensor_type;location;lat;lon;timestamp;P1;durP1;ratioP1;P2;durP2;ratioP2
48034;SDS011;33812;46.480;6.834;2022-11-09T00:01:02;0.85;;;0.70;;
48034;SDS011;33812;46.480;6.834;2022-11-09T00:05:06;2.38;;;1.13;;
48034;SDS011;33812;46.480;6.834;2022-11-09T00:09:08;1.77;;;1.05;;
48034;SDS011;33812;46.480;6.834;2022-11-09T00:13:10;1.27;;;0.85;;
48034;SDS011;33812;46.480;6.834;2022-11-09T00:17:12;1.05;;;0.75;;
48034;SDS011;33812;46.480;6.834;2022-11-09T00:21:15;3.45;;;0.90;;
48034;SDS011;33812;46.480;6.834;2022-11-09T00:25:18;4.35;;;1.15;;
48034;SDS011;33812;46.480;6.834;2022-11-09T00:29:20;1.13;;;0.80;;
48034;SDS011;33812;46.480;6.834;2022-11-09T00:33:22;1.52;;;0.80;;
48034;SDS011;33812;46.480;6.834;2022-11-09T00:37:25;1.73;;;0.60;;
48034;SDS011;33812;46.480;6.834;2022-11-09T00:41:29;1.67;;;0.77;;
48034;SDS011;33812;46.480;6.834;2022-11-09T00:45:31;1.33;;;0.80;;
48034;SDS011;33812;46.480;6.834;2022-11-09T00:49:32;1.20;;;0.70;;
48034;SDS011;33812;46.480;6.834;2022-11-09T00:53:35;1.40;;;0.90;;
48034;SDS011;33812;46.480;6.834;2022-11-09T00:57:37;1.70;;;1.00;;
48034;SDS011;33812;46.480;6.834;2022-11-09T01:01:39;1.35;;;0.77;;
48034;SDS011;33812;46.480;6.834;2022-11-09T01:05:41;2.90;;;0.88;;
48034;SDS011;33812;46.480;6.834;2022-11-09T01:09:44;6.75;;;1.27;;
48034;SDS011;33812;46.480;6.834;2022-11-09T01:13:46;1.38;;;1.00;;
48034;SDS011;33812;46.480;6.834;2022-11-09T01:17:48;1.10;;;0.73;;
48034;SDS011;33812;46.480;6.834;2022-11-09T01:21:50;5.80;;;0.82;;
48034;SDS011;33812;46.480;6.834;2022-11-09T01:25:57;1.70;;;0.70;;
48034;SDS011;33812;46.480;6.834;2022-11-09T01:29:59;1.70;;;0.70;;
48034;SDS011;33812;46.480;6.834;2022-11-09T01:34:01;3.13;;;0.95;;
48034;SDS011;33812;46.480;6.834;2022-11-09T01:38:03;1.65;;;0.70;;
48034;SDS011;33812;46.480;6.834;2022-11-09T01:42:08;5.05;;;1.15;;
48034;SDS011;33812;46.480;6.834;2022-11-09T01:46:12;3.78;;;1.10;;
48034;SDS011;33812;46.480;6.834;2022-11-09T01:50:28;11.02;;;0.98;;
48034;SDS011;33812;46.480;6.834;2022-11-09T01:54:35;1.50;;;0.82;;
48034;SDS011;33812;46.480;6.834;2022-11-09T01:58:52;1.58;;;0.77;;
48034;SDS011;33812;46.480;6.834;2022-11-09T02:02:59;3.92;;;1.10;;
48034;SDS011;33812;46.480;6.834;2022-11-09T02:07:06;1.70;;;1.08;;
48034;SDS011;33812;46.480;6.834;2022-11-09T02:11:08;1.58;;;0.80;;
48034;SDS011;33812;46.480;6.834;2022-11-09T02:15:12;1.58;;;0.75;;
48034;SDS011;33812;46.480;6.834;2022-11-09T02:19:15;3.25;;;1.25;;
48034;SDS011;33812;46.480;6.834;2022-11-09T02:23:18;7.15;;;1.10;;
48034;SDS011;33812;46.480;6.834;2022-11-09T02:27:20;1.58;;;0.82;;
48034;SDS011;33812;46.480;6.834;2022-11-09T02:31:23;1.65;;;0.85;;
48034;SDS011;33812;46.480;6.834;2022-11-09T02:35:29;2.10;;;0.80;;
48034;SDS011;33812;46.480;6.834;2022-11-09T02:39:33;3.45;;;1.00;;
48034;SDS011;33812;46.480;6.834;2022-11-09T02:43:35;4.75;;;0.68;;
48034;SDS011;33812;46.480;6.834;2022-11-09T02:47:37;1.75;;;0.70;;
48034;SDS011;33812;46.480;6.834;2022-11-09T02:51:39;1.55;;;0.75;;
48034;SDS011;33812;46.480;6.834;2022-11-09T02:55:42;2.08;;;0.80;;
48034;SDS011;33812;46.480;6.834;2022-11-09T02:59:44;1.13;;;0.80;;
48034;SDS011;33812;46.480;6.834;2022-11-09T03:03:46;1.00;;;0.80;;
48034;SDS011;33812;46.480;6.834;2022-11-09T03:07:48;2.20;;;0.93;;
48034;SDS011;33812;46.480;6.834;2022-11-09T03:11:51;1.50;;;0.90;;
48034;SDS011;33812;46.480;6.834;2022-11-09T03:15:53;5.68;;;0.90;;
48034;SDS011;33812;46.480;6.834;2022-11-09T03:19:55;1.35;;;0.50;;
48034;SDS011;33812;46.480;6.834;2022-11-09T03:23:57;2.42;;;0.80;;
48034;SDS011;33812;46.480;6.834;2022-11-09T03:28:00;2.08;;;0.93;;
48034;SDS011;33812;46.480;6.834;2022-11-09T03:32:03;1.52;;;0.80;;
48034;SDS011;33812;46.480;6.834;2022-11-09T03:36:06;2.15;;;0.70;;
48034;SDS011;33812;46.480;6.834;2022-11-09T03:40:08;1.60;;;0.80;;
48034;SDS011;33812;46.480;6.834;2022-11-09T03:44:12;4.47;;;1.73;;
48034;SDS011;33812;46.480;6.834;2022-11-09T03:48:14;1.73;;;0.90;;
48034;SDS011;33812;46.480;6.834;2022-11-09T03:52:16;1.90;;;1.00;;
48034;SDS011;33812;46.480;6.834;2022-11-09T03:56:18;1.52;;;0.82;;
48034;SDS011;33812;46.480;6.834;2022-11-09T04:00:21;2.80;;;0.80;;
48034;SDS011;33812;46.480;6.834;2022-11-09T04:04:23;1.90;;;0.90;;
48034;SDS011;33812;46.480;6.834;2022-11-09T04:08:25;2.40;;;0.95;;
48034;SDS011;33812;46.480;6.834;2022-11-09T04:12:27;1.27;;;0.73;;
48034;SDS011;33812;46.480;6.834;2022-11-09T04:16:30;1.63;;;0.80;;
48034;SDS011;33812;46.480;6.834;2022-11-09T04:20:32;3.15;;;1.05;;
48034;SDS011;33812;46.480;6.834;2022-11-09T04:24:34;2.30;;;1.00;;
48034;SDS011;33812;46.480;6.834;2022-11-09T04:28:35;1.88;;;0.90;;
48034;SDS011;33812;46.480;6.834;2022-11-09T04:32:39;1.92;;;0.90;;
48034;SDS011;33812;46.480;6.834;2022-11-09T04:36:40;2.25;;;1.02;;
48034;SDS011;33812;46.480;6.834;2022-11-09T04:40:42;2.47;;;1.00;;
48034;SDS011;33812;46.480;6.834;2022-11-09T04:44:44;1.40;;;0.70;;
48034;SDS011;33812;46.480;6.834;2022-11-09T04:48:47;0.80;;;0.47;;
48034;SDS011;33812;46.480;6.834;2022-11-09T04:52:49;2.08;;;1.08;;
48034;SDS011;33812;46.480;6.834;2022-11-09T04:56:50;4.93;;;1.13;;
48034;SDS011;33812;46.480;6.834;2022-11-09T05:00:52;1.67;;;0.88;;
48034;SDS011;33812;46.480;6.834;2022-11-09T05:04:56;2.03;;;0.85;;
48034;SDS011;33812;46.480;6.834;2022-11-09T05:08:58;2.58;;;1.23;;
48034;SDS011;33812;46.480;6.834;2022-11-09T05:13:01;3.33;;;1.08;;
48034;SDS011;33812;46.480;6.834;2022-11-09T05:17:04;2.35;;;1.17;;
48034;SDS011;33812;46.480;6.834;2022-11-09T05:21:09;1.92;;;0.98;;
48034;SDS011;33812;46.480;6.834;2022-11-09T05:25:10;4.35;;;1.00;;
48034;SDS011;33812;46.480;6.834;2022-11-09T05:29:12;2.38;;;0.93;;
48034;SDS011;33812;46.480;6.834;2022-11-09T05:33:14;1.73;;;0.90;;
48034;SDS011;33812;46.480;6.834;2022-11-09T05:37:17;2.08;;;0.88;;
48034;SDS011;33812;46.480;6.834;2022-11-09T05:41:21;1.90;;;0.90;;
48034;SDS011;33812;46.480;6.834;2022-11-09T05:45:23;3.65;;;0.98;;
48034;SDS011;33812;46.480;6.834;2022-11-09T05:49:25;5.03;;;1.02;;
48034;SDS011;33812;46.480;6.834;2022-11-09T05:53:28;5.03;;;1.73;;
48034;SDS011;33812;46.480;6.834;2022-11-09T05:57:30;4.15;;;1.05;;
48034;SDS011;33812;46.480;6.834;2022-11-09T06:01:32;7.78;;;1.35;;
48034;SDS011;33812;46.480;6.834;2022-11-09T06:05:34;3.42;;;1.20;;
48034;SDS011;33812;46.480;6.834;2022-11-09T06:09:38;8.73;;;1.38;;
48034;SDS011;33812;46.480;6.834;2022-11-09T06:13:39;5.35;;;1.13;;
48034;SDS011;33812;46.480;6.834;2022-11-09T06:17:42;4.47;;;1.10;;
48034;SDS011;33812;46.480;6.834;2022-11-09T06:21:44;5.80;;;1.50;;
48034;SDS011;33812;46.480;6.834;2022-11-09T06:25:47;4.28;;;1.25;;
48034;SDS011;33812;46.480;6.834;2022-11-09T06:29:50;4.40;;;1.17;;
48034;SDS011;33812;46.480;6.834;2022-11-09T06:33:53;17.48;;;1.50;;
48034;SDS011;33812;46.480;6.834;2022-11-09T06:37:56;3.92;;;1.50;;
48034;SDS011;33812;46.480;6.834;2022-11-09T06:42:00;4.83;;;1.27;;
48034;SDS011;33812;46.480;6.834;2022-11-09T06:50:10;10.52;;;1.60;;
48034;SDS011;33812;46.480;6.834;2022-11-09T06:54:14;4.82;;;1.15;;
48034;SDS011;33812;46.480;6.834;2022-11-09T06:58:17;4.97;;;1.48;;
48034;SDS011;33812;46.480;6.834;2022-11-09T07:02:19;13.70;;;1.13;;
48034;SDS011;33812;46.480;6.834;2022-11-09T07:06:21;5.82;;;0.98;;
48034;SDS011;33812;46.480;6.834;2022-11-09T07:10:23;19.77;;;1.98;;
48034;SDS011;33812;46.480;6.834;2022-11-09T07:14:26;2.10;;;1.08;;
48034;SDS011;33812;46.480;6.834;2022-11-09T07:18:28;6.30;;;1.42;;
48034;SDS011;33812;46.480;6.834;2022-11-09T07:22:30;5.05;;;1.00;;
48034;SDS011;33812;46.480;6.834;2022-11-09T07:26:33;4.22;;;0.80;;
48034;SDS011;33812;46.480;6.834;2022-11-09T07:30:37;7.43;;;0.75;;
48034;SDS011;33812;46.480;6.834;2022-11-09T07:34:40;10.35;;;1.73;;
48034;SDS011;33812;46.480;6.834;2022-11-09T07:38:42;4.93;;;1.02;;
48034;SDS011;33812;46.480;6.834;2022-11-09T07:42:44;4.30;;;0.63;;
48034;SDS011;33812;46.480;6.834;2022-11-09T07:46:48;3.35;;;0.90;;
48034;SDS011;33812;46.480;6.834;2022-11-09T07:50:50;3.15;;;0.95;;
48034;SDS011;33812;46.480;6.834;2022-11-09T07:54:51;6.25;;;1.05;;
48034;SDS011;33812;46.480;6.834;2022-11-09T07:58:53;7.43;;;0.90;;
48034;SDS011;33812;46.480;6.834;2022-11-09T08:02:56;6.68;;;1.20;;
48034;SDS011;33812;46.480;6.834;2022-11-09T08:06:58;10.40;;;2.33;;
48034;SDS011;33812;46.480;6.834;2022-11-09T08:11:00;4.05;;;1.10;;
48034;SDS011;33812;46.480;6.834;2022-11-09T08:15:01;3.97;;;0.93;;
48034;SDS011;33812;46.480;6.834;2022-11-09T08:19:05;3.17;;;1.05;;
48034;SDS011;33812;46.480;6.834;2022-11-09T08:23:09;5.70;;;1.67;;
48034;SDS011;33812;46.480;6.834;2022-11-09T08:27:11;3.75;;;0.90;;
48034;SDS011;33812;46.480;6.834;2022-11-09T08:31:13;17.73;;;2.25;;
48034;SDS011;33812;46.480;6.834;2022-11-09T08:35:17;2.42;;;1.00;;
48034;SDS011;33812;46.480;6.834;2022-11-09T08:39:20;3.10;;;1.10;;
48034;SDS011;33812;46.480;6.834;2022-11-09T08:43:22;2.90;;;0.90;;
48034;SDS011;33812;46.480;6.834;2022-11-09T08:47:24;4.95;;;0.90;;
48034;SDS011;33812;46.480;6.834;2022-11-09T08:51:27;2.67;;;0.93;;
48034;SDS011;33812;46.480;6.834;2022-11-09T08:55:29;2.58;;;0.60;;
48034;SDS011;33812;46.480;6.834;2022-11-09T08:59:30;2.65;;;1.15;;
48034;SDS011;33812;46.480;6.834;2022-11-09T09:03:32;5.47;;;1.65;;
48034;SDS011;33812;46.480;6.834;2022-11-09T09:07:35;3.03;;;1.08;;
48034;SDS011;33812;46.480;6.834;2022-11-09T09:11:37;2.55;;;0.70;;
48034;SDS011;33812;46.480;6.834;2022-11-09T09:15:39;1.33;;;0.70;;
48034;SDS011;33812;46.480;6.834;2022-11-09T09:19:40;3.95;;;0.88;;
48034;SDS011;33812;46.480;6.834;2022-11-09T09:23:43;4.55;;;0.70;;
48034;SDS011;33812;46.480;6.834;2022-11-09T09:27:47;1.65;;;0.70;;
48034;SDS011;33812;46.480;6.834;2022-11-09T09:31:49;3.33;;;0.70;;
48034;SDS011;33812;46.480;6.834;2022-11-09T09:35:51;3.13;;;1.30;;
48034;SDS011;33812;46.480;6.834;2022-11-09T09:39:57;0.82;;;0.57;;
48034;SDS011;33812;46.480;6.834;2022-11-09T09:43:59;2.50;;;0.88;;
48034;SDS011;33812;46.480;6.834;2022-11-09T09:48:11;1.25;;;0.90;;
48034;SDS011;33812;46.480;6.834;2022-11-09T09:52:22;1.93;;;1.27;;
48034;SDS011;33812;46.480;6.834;2022-11-09T09:56:36;24.73;;;14.82;;
48034;SDS011;33812;46.480;6.834;2022-11-09T10:00:40;1.42;;;0.82;;
48034;SDS011;33812;46.480;6.834;2022-11-09T10:04:43;1.52;;;0.70;;
48034;SDS011;33812;46.480;6.834;2022-11-09T10:08:46;2.50;;;0.82;;
48034;SDS011;33812;46.480;6.834;2022-11-09T10:13:01;2.10;;;1.00;;
48034;SDS011;33812;46.480;6.834;2022-11-09T10:17:18;4.60;;;0.70;;
48034;SDS011;33812;46.480;6.834;2022-11-09T10:21:30;1.63;;;0.98;;
48034;SDS011;33812;46.480;6.834;2022-11-09T10:25:39;8.48;;;0.90;;
48034;SDS011;33812;46.480;6.834;2022-11-09T10:29:47;1.73;;;0.80;;
48034;SDS011;33812;46.480;6.834;2022-11-09T10:33:51;1.58;;;0.82;;
48034;SDS011;33812;46.480;6.834;2022-11-09T10:37:54;7.15;;;1.00;;
48034;SDS011;33812;46.480;6.834;2022-11-09T10:41:56;3.83;;;0.80;;
48034;SDS011;33812;46.480;6.834;2022-11-09T10:46:00;1.70;;;0.80;;
48034;SDS011;33812;46.480;6.834;2022-11-09T10:50:05;2.45;;;1.00;;
48034;SDS011;33812;46.480;6.834;2022-11-09T10:54:15;1.10;;;0.65;;
48034;SDS011;33812;46.480;6.834;2022-11-09T10:58:30;7.75;;;1.02;;
48034;SDS011;33812;46.480;6.834;2022-11-09T11:02:40;1.15;;;0.70;;
48034;SDS011;33812;46.480;6.834;2022-11-09T11:06:43;1.55;;;0.80;;
48034;SDS011;33812;46.480;6.834;2022-11-09T11:10:45;1.52;;;0.80;;
48034;SDS011;33812;46.480;6.834;2022-11-09T11:14:47;1.50;;;0.80;;
48034;SDS011;33812;46.480;6.834;2022-11-09T11:18:50;3.83;;;1.58;;
48034;SDS011;33812;46.480;6.834;2022-11-09T11:22:58;2.13;;;0.88;;
48034;SDS011;33812;46.480;6.834;2022-11-09T11:27:13;1.40;;;0.55;;
48034;SDS011;33812;46.480;6.834;2022-11-09T11:31:19;2.13;;;0.82;;
48034;SDS011;33812;46.480;6.834;2022-11-09T11:35:33;1.20;;;0.60;;
48034;SDS011;33812;46.480;6.834;2022-11-09T11:39:40;1.75;;;0.88;;
48034;SDS011;33812;46.480;6.834;2022-11-09T11:43:52;2.80;;;1.10;;
48034;SDS011;33812;46.480;6.834;2022-11-09T11:48:10;1.25;;;0.57;;
48034;SDS011;33812;46.480;6.834;2022-11-09T11:52:26;1.10;;;0.70;;
48034;SDS011;33812;46.480;6.834;2022-11-09T11:56:35;3.22;;;0.50;;
48034;SDS011;33812;46.480;6.834;2022-11-09T12:00:43;1.33;;;0.80;;
48034;SDS011;33812;46.480;6.834;2022-11-09T12:04:57;1.40;;;0.60;;
48034;SDS011;33812;46.480;6.834;2022-11-09T12:13:53;1.48;;;0.60;;
48034;SDS011;33812;46.480;6.834;2022-11-09T12:18:04;0.90;;;0.73;;
48034;SDS011;33812;46.480;6.834;2022-11-09T12:22:17;1.27;;;0.75;;
48034;SDS011;33812;46.480;6.834;2022-11-09T12:26:33;1.65;;;1.15;;
48034;SDS011;33812;46.480;6.834;2022-11-09T12:30:47;1.48;;;0.93;;
48034;SDS011;33812;46.480;6.834;2022-11-09T12:35:01;2.45;;;1.00;;
48034;SDS011;33812;46.480;6.834;2022-11-09T12:39:17;3.55;;;0.82;;
48034;SDS011;33812;46.480;6.834;2022-11-09T12:43:24;6.38;;;0.90;;
48034;SDS011;33812;46.480;6.834;2022-11-09T12:47:30;2.58;;;0.75;;
48034;SDS011;33812;46.480;6.834;2022-11-09T12:51:37;1.08;;;0.60;;
48034;SDS011;33812;46.480;6.834;2022-11-09T12:55:41;1.33;;;0.80;;
48034;SDS011;33812;46.480;6.834;2022-11-09T12:59:49;5.85;;;0.80;;
48034;SDS011;33812;46.480;6.834;2022-11-09T13:03:53;2.63;;;0.80;;
48034;SDS011;33812;46.480;6.834;2022-11-09T13:07:57;3.05;;;1.23;;
48034;SDS011;33812;46.480;6.834;2022-11-09T13:12:14;2.80;;;1.20;;
48034;SDS011;33812;46.480;6.834;2022-11-09T13:16:32;4.20;;;0.93;;
48034;SDS011;33812;46.480;6.834;2022-11-09T13:24:55;2.80;;;1.55;;
48034;SDS011;33812;46.480;6.834;2022-11-09T13:29:09;2.37;;;1.20;;
48034;SDS011;33812;46.480;6.834;2022-11-09T13:33:25;2.35;;;0.80;;
48034;SDS011;33812;46.480;6.834;2022-11-09T13:37:34;7.13;;;1.05;;
48034;SDS011;33812;46.480;6.834;2022-11-09T13:41:53;2.08;;;0.90;;
48034;SDS011;33812;46.480;6.834;2022-11-09T13:45:55;1.95;;;1.05;;
48034;SDS011;33812;46.480;6.834;2022-11-09T13:50:00;1.70;;;0.70;;
48034;SDS011;33812;46.480;6.834;2022-11-09T13:54:26;1.77;;;0.95;;
48034;SDS011;33812;46.480;6.834;2022-11-09T13:58:31;3.10;;;1.13;;
48034;SDS011;33812;46.480;6.834;2022-11-09T14:02:35;4.72;;;1.25;;
48034;SDS011;33812;46.480;6.834;2022-11-09T14:06:38;3.70;;;1.13;;
48034;SDS011;33812;46.480;6.834;2022-11-09T14:10:44;3.67;;;1.08;;
48034;SDS011;33812;46.480;6.834;2022-11-09T14:15:09;3.60;;;1.33;;
48034;SDS011;33812;46.480;6.834;2022-11-09T14:19:20;3.28;;;1.00;;
48034;SDS011;33812;46.480;6.834;2022-11-09T14:23:30;4.93;;;1.48;;
48034;SDS011;33812;46.480;6.834;2022-11-09T14:27:33;2.95;;;1.10;;
48034;SDS011;33812;46.480;6.834;2022-11-09T14:31:40;1.77;;;0.85;;
48034;SDS011;33812;46.480;6.834;2022-11-09T14:35:44;6.32;;;0.80;;
48034;SDS011;33812;46.480;6.834;2022-11-09T14:39:48;3.42;;;1.23;;
48034;SDS011;33812;46.480;6.834;2022-11-09T14:43:53;2.35;;;1.00;;
48034;SDS011;33812;46.480;6.834;2022-11-09T14:47:58;5.97;;;1.10;;
48034;SDS011;33812;46.480;6.834;2022-11-09T14:52:00;2.90;;;0.85;;
48034;SDS011;33812;46.480;6.834;2022-11-09T14:56:04;2.83;;;0.88;;
48034;SDS011;33812;46.480;6.834;2022-11-09T15:00:22;4.45;;;1.10;;
48034;SDS011;33812;46.480;6.834;2022-11-09T15:04:29;2.60;;;0.90;;
48034;SDS011;33812;46.480;6.834;2022-11-09T15:08:53;5.95;;;0.88;;
48034;SDS011;33812;46.480;6.834;2022-11-09T15:12:59;3.80;;;1.25;;
48034;SDS011;33812;46.480;6.834;2022-11-09T15:17:05;3.67;;;1.83;;
48034;SDS011;33812;46.480;6.834;2022-11-09T15:21:14;2.03;;;0.98;;
48034;SDS011;33812;46.480;6.834;2022-11-09T15:25:28;1.45;;;0.70;;
48034;SDS011;33812;46.480;6.834;2022-11-09T15:29:37;1.70;;;0.82;;
48034;SDS011;33812;46.480;6.834;2022-11-09T15:33:43;1.83;;;0.90;;
48034;SDS011;33812;46.480;6.834;2022-11-09T15:37:49;1.42;;;0.70;;
48034;SDS011;33812;46.480;6.834;2022-11-09T15:41:52;2.13;;;0.75;;
48034;SDS011;33812;46.480;6.834;2022-11-09T15:45:56;1.70;;;0.80;;
48034;SDS011;33812;46.480;6.834;2022-11-09T15:50:01;35.45;;;9.43;;
48034;SDS011;33812;46.480;6.834;2022-11-09T15:54:06;3.58;;;1.65;;
48034;SDS011;33812;46.480;6.834;2022-11-09T15:58:10;4.43;;;1.20;;
48034;SDS011;33812;46.480;6.834;2022-11-09T16:02:15;10.70;;;1.40;;
48034;SDS011;33812;46.480;6.834;2022-11-09T16:10:22;8.20;;;1.73;;
48034;SDS011;33812;46.480;6.834;2022-11-09T16:14:29;17.20;;;1.95;;
48034;SDS011;33812;46.480;6.834;2022-11-09T16:18:33;12.07;;;1.63;;
48034;SDS011;33812;46.480;6.834;2022-11-09T16:22:35;19.88;;;2.45;;
48034;SDS011;33812;46.480;6.834;2022-11-09T16:26:37;18.45;;;1.95;;
48034;SDS011;33812;46.480;6.834;2022-11-09T16:30:38;7.18;;;1.30;;
48034;SDS011;33812;46.480;6.834;2022-11-09T16:34:41;14.48;;;2.25;;
48034;SDS011;33812;46.480;6.834;2022-11-09T16:38:44;10.35;;;1.67;;
48034;SDS011;33812;46.480;6.834;2022-11-09T16:42:47;5.45;;;2.17;;
48034;SDS011;33812;46.480;6.834;2022-11-09T16:46:51;37.17;;;18.92;;
48034;SDS011;33812;46.480;6.834;2022-11-09T16:50:54;25.20;;;10.32;;
48034;SDS011;33812;46.480;6.834;2022-11-09T16:54:56;23.48;;;9.20;;
48034;SDS011;33812;46.480;6.834;2022-11-09T16:58:58;25.33;;;7.55;;
48034;SDS011;33812;46.480;6.834;2022-11-09T17:03:00;15.18;;;6.60;;
48034;SDS011;33812;46.480;6.834;2022-11-09T17:07:04;14.23;;;5.90;;
48034;SDS011;33812;46.480;6.834;2022-11-09T17:11:07;13.02;;;6.30;;
48034;SDS011;33812;46.480;6.834;2022-11-09T17:15:10;10.68;;;6.22;;
48034;SDS011;33812;46.480;6.834;2022-11-09T17:19:11;10.98;;;5.93;;
48034;SDS011;33812;46.480;6.834;2022-11-09T17:23:16;59.85;;;7.15;;
48034;SDS011;33812;46.480;6.834;2022-11-09T17:27:19;19.55;;;6.78;;
48034;SDS011;33812;46.480;6.834;2022-11-09T17:31:21;14.77;;;6.13;;
48034;SDS011;33812;46.480;6.834;2022-11-09T17:35:25;24.08;;;5.57;;
48034;SDS011;33812;46.480;6.834;2022-11-09T17:39:29;16.30;;;6.05;;
48034;SDS011;33812;46.480;6.834;2022-11-09T17:43:32;16.30;;;4.97;;
48034;SDS011;33812;46.480;6.834;2022-11-09T17:51:37;14.98;;;5.30;;
48034;SDS011;33812;46.480;6.834;2022-11-09T17:55:40;19.38;;;8.85;;
48034;SDS011;33812;46.480;6.834;2022-11-09T17:59:42;14.30;;;5.00;;
48034;SDS011;33812;46.480;6.834;2022-11-09T18:03:44;11.75;;;5.05;;
48034;SDS011;33812;46.480;6.834;2022-11-09T18:07:46;15.50;;;4.75;;
48034;SDS011;33812;46.480;6.834;2022-11-09T18:11:49;16.05;;;8.05;;
48034;SDS011;33812;46.480;6.834;2022-11-09T18:15:50;14.73;;;6.15;;
48034;SDS011;33812;46.480;6.834;2022-11-09T18:19:52;12.65;;;5.63;;
48034;SDS011;33812;46.480;6.834;2022-11-09T18:23:55;26.77;;;7.90;;
48034;SDS011;33812;46.480;6.834;2022-11-09T18:27:59;11.35;;;5.22;;
48034;SDS011;33812;46.480;6.834;2022-11-09T18:32:01;9.17;;;5.40;;
48034;SDS011;33812;46.480;6.834;2022-11-09T18:36:03;9.50;;;5.10;;
48034;SDS011;33812;46.480;6.834;2022-11-09T18:40:08;13.55;;;4.63;;
48034;SDS011;33812;46.480;6.834;2022-11-09T18:44:13;7.07;;;3.35;;
48034;SDS011;33812;46.480;6.834;2022-11-09T18:48:14;10.60;;;3.40;;
48034;SDS011;33812;46.480;6.834;2022-11-09T18:52:18;5.78;;;2.00;;
48034;SDS011;33812;46.480;6.834;2022-11-09T18:56:20;1.38;;;1.00;;
48034;SDS011;33812;46.480;6.834;2022-11-09T19:00:25;7.30;;;2.05;;
48034;SDS011;33812;46.480;6.834;2022-11-09T19:04:27;8.70;;;1.38;;
48034;SDS011;33812;46.480;6.834;2022-11-09T19:08:28;11.23;;;1.15;;
48034;SDS011;33812;46.480;6.834;2022-11-09T19:12:48;6.50;;;1.45;;
48034;SDS011;33812;46.480;6.834;2022-11-09T19:16:51;16.38;;;2.15;;
48034;SDS011;33812;46.480;6.834;2022-11-09T19:20:54;6.15;;;1.65;;
48034;SDS011;33812;46.480;6.834;2022-11-09T19:24:56;5.18;;;1.58;;
48034;SDS011;33812;46.480;6.834;2022-11-09T19:28:58;10.05;;;1.80;;
48034;SDS011;33812;46.480;6.834;2022-11-09T19:33:01;9.10;;;1.98;;
48034;SDS011;33812;46.480;6.834;2022-11-09T19:37:03;26.05;;;2.08;;
48034;SDS011;33812;46.480;6.834;2022-11-09T19:41:05;12.75;;;2.15;;
48034;SDS011;33812;46.480;6.834;2022-11-09T19:45:07;13.88;;;2.17;;
48034;SDS011;33812;46.480;6.834;2022-11-09T19:49:12;6.05;;;1.40;;
48034;SDS011;33812;46.480;6.834;2022-11-09T19:53:15;19.05;;;1.83;;
48034;SDS011;33812;46.480;6.834;2022-11-09T19:57:18;16.08;;;2.40;;
48034;SDS011;33812;46.480;6.834;2022-11-09T20:01:20;21.48;;;1.33;;
48034;SDS011;33812;46.480;6.834;2022-11-09T20:05:37;20.52;;;1.73;;
48034;SDS011;33812;46.480;6.834;2022-11-09T20:09:39;6.35;;;1.20;;
48034;SDS011;33812;46.480;6.834;2022-11-09T20:13:41;18.70;;;1.92;;
48034;SDS011;33812;46.480;6.834;2022-11-09T20:17:43;5.82;;;1.30;;
48034;SDS011;33812;46.480;6.834;2022-11-09T20:21:47;9.40;;;1.30;;
48034;SDS011;33812;46.480;6.834;2022-11-09T20:25:51;3.05;;;1.17;;
48034;SDS011;33812;46.480;6.834;2022-11-09T20:29:52;11.98;;;2.10;;
48034;SDS011;33812;46.480;6.834;2022-11-09T20:33:57;6.72;;;1.77;;
48034;SDS011;33812;46.480;6.834;2022-11-09T20:38:14;6.97;;;1.40;;
48034;SDS011;33812;46.480;6.834;2022-11-09T20:46:18;11.18;;;1.40;;
48034;SDS011;33812;46.480;6.834;2022-11-09T20:50:22;5.50;;;1.15;;
48034;SDS011;33812;46.480;6.834;2022-11-09T20:54:25;5.32;;;1.58;;
48034;SDS011;33812;46.480;6.834;2022-11-09T20:58:28;3.95;;;0.90;;
48034;SDS011;33812;46.480;6.834;2022-11-09T21:02:31;5.85;;;1.50;;
48034;SDS011;33812;46.480;6.834;2022-11-09T21:06:34;4.68;;;1.35;;
48034;SDS011;33812;46.480;6.834;2022-11-09T21:10:42;8.45;;;1.88;;
48034;SDS011;33812;46.480;6.834;2022-11-09T21:14:43;7.35;;;1.85;;
48034;SDS011;33812;46.480;6.834;2022-11-09T21:18:46;5.97;;;1.75;;
48034;SDS011;33812;46.480;6.834;2022-11-09T21:22:48;4.97;;;1.38;;
48034;SDS011;33812;46.480;6.834;2022-11-09T21:27:12;7.75;;;1.48;;
48034;SDS011;33812;46.480;6.834;2022-11-09T21:31:31;3.22;;;1.55;;
48034;SDS011;33812;46.480;6.834;2022-11-09T21:35:33;7.80;;;1.70;;
48034;SDS011;33812;46.480;6.834;2022-11-09T21:39:35;3.20;;;1.30;;
48034;SDS011;33812;46.480;6.834;2022-11-09T21:43:38;9.65;;;1.30;;
48034;SDS011;33812;46.480;6.834;2022-11-09T21:47:40;3.72;;;1.70;;
48034;SDS011;33812;46.480;6.834;2022-11-09T21:51:42;7.85;;;1.77;;
48034;SDS011;33812;46.480;6.834;2022-11-09T21:55:44;9.32;;;1.45;;
48034;SDS011;33812;46.480;6.834;2022-11-09T21:59:47;8.85;;;1.45;;
48034;SDS011;33812;46.480;6.834;2022-11-09T22:03:49;4.60;;;1.48;;
48034;SDS011;33812;46.480;6.834;2022-11-09T22:07:51;3.65;;;0.93;;
48034;SDS011;33812;46.480;6.834;2022-11-09T22:11:53;9.48;;;2.25;;
48034;SDS011;33812;46.480;6.834;2022-11-09T22:16:14;8.32;;;1.33;;
48034;SDS011;33812;46.480;6.834;2022-11-09T22:24:42;4.20;;;1.55;;
48034;SDS011;33812;46.480;6.834;2022-11-09T22:28:46;3.13;;;1.10;;
48034;SDS011;33812;46.480;6.834;2022-11-09T22:32:49;2.92;;;1.20;;
48034;SDS011;33812;46.480;6.834;2022-11-09T22:36:52;6.03;;;1.40;;
48034;SDS011;33812;46.480;6.834;2022-11-09T22:41:04;2.58;;;0.90;;
48034;SDS011;33812;46.480;6.834;2022-11-09T22:45:18;3.35;;;1.17;;
48034;SDS011;33812;46.480;6.834;2022-11-09T22:49:22;3.13;;;1.48;;
48034;SDS011;33812;46.480;6.834;2022-11-09T22:53:24;2.03;;;0.90;;
48034;SDS011;33812;46.480;6.834;2022-11-09T22:57:26;3.80;;;0.90;;
48034;SDS011;33812;46.480;6.834;2022-11-09T23:05:51;1.65;;;0.63;;
48034;SDS011;33812;46.480;6.834;2022-11-09T23:18:59;2.43;;;0.90;;
48034;SDS011;33812;46.480;6.834;2022-11-09T23:23:02;4.63;;;0.90;;
48034;SDS011;33812;46.480;6.834;2022-11-09T23:27:05;1.67;;;0.82;;
48034;SDS011;33812;46.480;6.834;2022-11-09T23:31:07;5.05;;;1.38;;
48034;SDS011;33812;46.480;6.834;2022-11-09T23:35:12;4.07;;;0.82;;
48034;SDS011;33812;46.480;6.834;2022-11-09T23:39:17;2.47;;;0.70;;
48034;SDS011;33812;46.480;6.834;2022-11-09T23:43:20;3.60;;;1.00;;
48034;SDS011;33812;46.480;6.834;2022-11-09T23:47:21;1.85;;;0.82;;
48034;SDS011;33812;46.480;6.834;2022-11-09T23:51:23;0.77;;;0.73;;
48034;SDS011;33812;46.480;6.834;2022-11-09T23:55:27;6.80;;;1.08;;
48034;SDS011;33812;46.480;6.834;2022-11-09T23:59:29;3.92;;;1.27;;
